FNSA

Details ICAO FNSA (VHC)
Name SAURIMO
Region Angola
Timezone Africa/Luanda (UTC+1.0)
Plans Departing 4
Arriving 3
Stats Elevation 3,584 ft / 1,092 m (AMSL)
Location -9.689066° 20.431875°
Runways 1
Magnetic Variation 1.878° W
Sunrise 2017-12-17 04:15:07 UTC / 2017-12-17 05:15:07 Local
Sunset 2017-12-17 16:56:21 UTC / 2017-12-17 17:56:21 Local
Advertisement - Login to hide

Runways

ID Width Length Bearing (true) Bearing (mag) Surface Threshold Offset Overrun Length
14 148 ft / 45 m 11,186 ft / 3,409 m 130.13° 132.01° Asphalt 2,953 ft / 900 m 0 ft / 0 m
32 148 ft / 45 m 11,186 ft / 3,409 m 310.12° 312.00° Asphalt 0 ft / 0 m 0 ft / 0 m

Map

Weather


0- 5 10 15 20 25 30 35+ Temperature / ° C

Clouds and Precipitation
Forecast for 2017-12-17 06:00 UTC. Updated an hour ago

Ground ~20,000 ft ~40,000 ft Winds

METAR

Not found

TAF

TAF FNSA 162300Z 1700/1712 VRB03KT 6000 -RA FEW006 BKN012 TEMPO 1703/1707 22005KT 9000 BKN009

Frequencies

Tower 118.10 MHz AFIS
Warning: Do not use this data for real-world aviation or navigation. No guarantee of current accuracy is given.